sensor_id;sensor_type;location;lat;lon;timestamp;temperature;humidity
4826;DHT22;2427;50.934;6.776;2023-04-24T00:02:20;11.30;1.00
4826;DHT22;2427;50.934;6.776;2023-04-24T00:04:46;11.30;1.00
4826;DHT22;2427;50.934;6.776;2023-04-24T00:07:12;11.30;1.00
4826;DHT22;2427;50.934;6.776;2023-04-24T00:09:38;11.30;1.00
4826;DHT22;2427;50.934;6.776;2023-04-24T00:12:04;11.40;1.00
4826;DHT22;2427;50.934;6.776;2023-04-24T00:14:30;11.40;1.00
4826;DHT22;2427;50.934;6.776;2023-04-24T00:16:56;11.40;1.00
4826;DHT22;2427;50.934;6.776;2023-04-24T00:19:22;11.30;1.00
4826;DHT22;2427;50.934;6.776;2023-04-24T00:21:47;11.30;1.00
4826;DHT22;2427;50.934;6.776;2023-04-24T00:24:16;11.30;1.00
4826;DHT22;2427;50.934;6.776;2023-04-24T00:26:42;11.30;1.00
4826;DHT22;2427;50.934;6.776;2023-04-24T00:29:07;11.30;1.00
4826;DHT22;2427;50.934;6.776;2023-04-24T00:31:33;11.30;1.00
4826;DHT22;2427;50.934;6.776;2023-04-24T00:34:02;11.30;1.00
4826;DHT22;2427;50.934;6.776;2023-04-24T00:36:28;11.30;1.00
4826;DHT22;2427;50.934;6.776;2023-04-24T00:38:54;11.30;1.00
4826;DHT22;2427;50.934;6.776;2023-04-24T00:41:21;11.30;1.00
4826;DHT22;2427;50.934;6.776;2023-04-24T00:43:47;11.20;1.00
4826;DHT22;2427;50.934;6.776;2023-04-24T00:46:13;11.20;1.00
4826;DHT22;2427;50.934;6.776;2023-04-24T00:48:39;11.20;1.00
4826;DHT22;2427;50.934;6.776;2023-04-24T00:51:05;11.20;1.00
4826;DHT22;2427;50.934;6.776;2023-04-24T00:53:31;11.20;1.00
4826;DHT22;2427;50.934;6.776;2023-04-24T00:55:57;11.20;1.00
4826;DHT22;2427;50.934;6.776;2023-04-24T00:58:23;11.10;1.00
4826;DHT22;2427;50.934;6.776;2023-04-24T01:11:11;11.10;1.00
4826;DHT22;2427;50.934;6.776;2023-04-24T01:13:36;11.00;1.00
4826;DHT22;2427;50.934;6.776;2023-04-24T01:16:02;11.00;1.00
4826;DHT22;2427;50.934;6.776;2023-04-24T01:18:28;10.90;1.00
4826;DHT22;2427;50.934;6.776;2023-04-24T01:20:57;10.90;1.00
4826;DHT22;2427;50.934;6.776;2023-04-24T01:23:23;10.80;99.90
4826;DHT22;2427;50.934;6.776;2023-04-24T01:25:49;10.80;99.90
4826;DHT22;2427;50.934;6.776;2023-04-24T01:28:16;10.70;99.90
4826;DHT22;2427;50.934;6.776;2023-04-24T01:30:42;10.60;99.90
4826;DHT22;2427;50.934;6.776;2023-04-24T01:33:08;10.50;99.90
4826;DHT22;2427;50.934;6.776;2023-04-24T01:35:34;10.50;99.90
4826;DHT22;2427;50.934;6.776;2023-04-24T01:38:01;10.30;1.00
4826;DHT22;2427;50.934;6.776;2023-04-24T01:40:27;10.20;1.00
4826;DHT22;2427;50.934;6.776;2023-04-24T01:42:53;10.20;1.00
4826;DHT22;2427;50.934;6.776;2023-04-24T01:45:18;10.10;1.00
4826;DHT22;2427;50.934;6.776;2023-04-24T01:47:45;10.00;1.00
4826;DHT22;2427;50.934;6.776;2023-04-24T01:50:11;10.00;1.00
4826;DHT22;2427;50.934;6.776;2023-04-24T01:52:37;9.90;1.00
4826;DHT22;2427;50.934;6.776;2023-04-24T01:55:03;9.80;1.00
4826;DHT22;2427;50.934;6.776;2023-04-24T01:57:30;9.70;1.00
4826;DHT22;2427;50.934;6.776;2023-04-24T01:59:56;9.60;1.00
4826;DHT22;2427;50.934;6.776;2023-04-24T02:02:22;9.50;1.00
4826;DHT22;2427;50.934;6.776;2023-04-24T02:04:49;9.50;1.00
4826;DHT22;2427;50.934;6.776;2023-04-24T02:07:15;9.40;1.00
4826;DHT22;2427;50.934;6.776;2023-04-24T02:09:41;9.40;1.00
4826;DHT22;2427;50.934;6.776;2023-04-24T02:12:06;9.30;1.00
4826;DHT22;2427;50.934;6.776;2023-04-24T02:14:32;9.30;1.00
4826;DHT22;2427;50.934;6.776;2023-04-24T02:16:58;9.40;1.00
4826;DHT22;2427;50.934;6.776;2023-04-24T02:19:24;9.40;1.00
4826;DHT22;2427;50.934;6.776;2023-04-24T02:21:49;9.40;1.00
4826;DHT22;2427;50.934;6.776;2023-04-24T02:24:15;9.40;1.00
4826;DHT22;2427;50.934;6.776;2023-04-24T02:26:41;9.40;1.00
4826;DHT22;2427;50.934;6.776;2023-04-24T02:29:06;9.40;1.00
4826;DHT22;2427;50.934;6.776;2023-04-24T02:31:32;9.40;1.00
4826;DHT22;2427;50.934;6.776;2023-04-24T02:33:57;9.50;1.00
4826;DHT22;2427;50.934;6.776;2023-04-24T02:36:23;9.40;1.00
4826;DHT22;2427;50.934;6.776;2023-04-24T02:38:48;9.40;1.00
4826;DHT22;2427;50.934;6.776;2023-04-24T02:41:14;9.40;1.00
4826;DHT22;2427;50.934;6.776;2023-04-24T02:43:40;9.40;1.00
4826;DHT22;2427;50.934;6.776;2023-04-24T02:46:05;9.50;1.00
4826;DHT22;2427;50.934;6.776;2023-04-24T02:48:31;9.50;1.00
4826;DHT22;2427;50.934;6.776;2023-04-24T02:50:56;9.50;1.00
4826;DHT22;2427;50.934;6.776;2023-04-24T02:53:22;9.40;1.00
4826;DHT22;2427;50.934;6.776;2023-04-24T02:55:48;9.40;1.00
4826;DHT22;2427;50.934;6.776;2023-04-24T02:58:14;9.50;1.00
4826;DHT22;2427;50.934;6.776;2023-04-24T03:00:39;9.50;1.00
4826;DHT22;2427;50.934;6.776;2023-04-24T03:03:05;9.50;1.00
4826;DHT22;2427;50.934;6.776;2023-04-24T03:05:31;9.50;1.00
4826;DHT22;2427;50.934;6.776;2023-04-24T03:07:57;9.40;1.00
4826;DHT22;2427;50.934;6.776;2023-04-24T03:10:22;9.40;1.00
4826;DHT22;2427;50.934;6.776;2023-04-24T03:12:48;9.40;1.00
4826;DHT22;2427;50.934;6.776;2023-04-24T03:15:14;9.30;1.00
4826;DHT22;2427;50.934;6.776;2023-04-24T03:17:40;9.30;1.00
4826;DHT22;2427;50.934;6.776;2023-04-24T03:20:06;9.30;1.00
4826;DHT22;2427;50.934;6.776;2023-04-24T03:22:33;9.40;1.00
4826;DHT22;2427;50.934;6.776;2023-04-24T03:24:59;9.40;1.00
4826;DHT22;2427;50.934;6.776;2023-04-24T03:27:24;9.30;1.00
4826;DHT22;2427;50.934;6.776;2023-04-24T03:29:50;9.30;1.00
4826;DHT22;2427;50.934;6.776;2023-04-24T03:32:20;9.30;1.00
4826;DHT22;2427;50.934;6.776;2023-04-24T03:34:46;9.20;1.00
4826;DHT22;2427;50.934;6.776;2023-04-24T03:37:11;9.20;1.00
4826;DHT22;2427;50.934;6.776;2023-04-24T03:39:37;9.20;1.00
4826;DHT22;2427;50.934;6.776;2023-04-24T03:42:03;9.20;1.00
4826;DHT22;2427;50.934;6.776;2023-04-24T03:44:28;9.20;1.00
4826;DHT22;2427;50.934;6.776;2023-04-24T03:46:54;9.20;1.00
4826;DHT22;2427;50.934;6.776;2023-04-24T03:49:20;9.20;1.00
4826;DHT22;2427;50.934;6.776;2023-04-24T03:51:45;9.20;1.00
4826;DHT22;2427;50.934;6.776;2023-04-24T03:54:11;9.20;1.00
4826;DHT22;2427;50.934;6.776;2023-04-24T03:56:36;9.20;1.00
4826;DHT22;2427;50.934;6.776;2023-04-24T03:59:02;9.20;1.00
4826;DHT22;2427;50.934;6.776;2023-04-24T04:01:27;9.20;1.00
4826;DHT22;2427;50.934;6.776;2023-04-24T04:03:53;9.20;1.00
4826;DHT22;2427;50.934;6.776;2023-04-24T04:06:19;9.20;1.00
4826;DHT22;2427;50.934;6.776;2023-04-24T04:08:46;9.20;1.00
4826;DHT22;2427;50.934;6.776;2023-04-24T04:11:12;9.20;1.00
4826;DHT22;2427;50.934;6.776;2023-04-24T04:13:37;9.10;1.00
4826;DHT22;2427;50.934;6.776;2023-04-24T04:16:03;9.20;1.00
4826;DHT22;2427;50.934;6.776;2023-04-24T04:18:29;9.10;1.00
4826;DHT22;2427;50.934;6.776;2023-04-24T04:20:54;9.10;1.00
4826;DHT22;2427;50.934;6.776;2023-04-24T04:23:20;9.20;1.00
4826;DHT22;2427;50.934;6.776;2023-04-24T04:25:45;9.20;1.00
4826;DHT22;2427;50.934;6.776;2023-04-24T04:28:12;9.20;1.00
4826;DHT22;2427;50.934;6.776;2023-04-24T04:30:37;9.20;1.00
4826;DHT22;2427;50.934;6.776;2023-04-24T04:33:03;9.20;1.00
4826;DHT22;2427;50.934;6.776;2023-04-24T04:35:29;9.20;1.00
4826;DHT22;2427;50.934;6.776;2023-04-24T04:37:54;9.20;1.00
4826;DHT22;2427;50.934;6.776;2023-04-24T04:40:24;9.20;1.00
4826;DHT22;2427;50.934;6.776;2023-04-24T04:42:50;9.20;1.00
4826;DHT22;2427;50.934;6.776;2023-04-24T04:45:18;9.20;1.00
4826;DHT22;2427;50.934;6.776;2023-04-24T04:47:44;9.20;1.00
4826;DHT22;2427;50.934;6.776;2023-04-24T04:50:10;9.30;1.00
4826;DHT22;2427;50.934;6.776;2023-04-24T04:52:36;9.20;1.00
4826;DHT22;2427;50.934;6.776;2023-04-24T04:55:01;9.30;1.00
4826;DHT22;2427;50.934;6.776;2023-04-24T04:57:27;9.20;1.00
4826;DHT22;2427;50.934;6.776;2023-04-24T04:59:53;9.30;1.00
4826;DHT22;2427;50.934;6.776;2023-04-24T05:02:19;9.30;1.00
4826;DHT22;2427;50.934;6.776;2023-04-24T05:04:44;9.30;1.00
4826;DHT22;2427;50.934;6.776;2023-04-24T05:07:10;9.30;1.00
4826;DHT22;2427;50.934;6.776;2023-04-24T05:09:36;9.30;1.00
4826;DHT22;2427;50.934;6.776;2023-04-24T05:12:02;9.30;1.00
4826;DHT22;2427;50.934;6.776;2023-04-24T05:14:28;9.30;1.00
4826;DHT22;2427;50.934;6.776;2023-04-24T05:16:54;9.30;1.00
4826;DHT22;2427;50.934;6.776;2023-04-24T05:19:19;9.30;1.00
4826;DHT22;2427;50.934;6.776;2023-04-24T05:21:45;9.30;1.00
4826;DHT22;2427;50.934;6.776;2023-04-24T05:24:10;9.30;1.00
4826;DHT22;2427;50.934;6.776;2023-04-24T05:26:36;9.30;1.00
4826;DHT22;2427;50.934;6.776;2023-04-24T05:29:02;9.30;1.00
4826;DHT22;2427;50.934;6.776;2023-04-24T05:31:28;9.30;1.00
4826;DHT22;2427;50.934;6.776;2023-04-24T05:33:53;9.30;1.00
4826;DHT22;2427;50.934;6.776;2023-04-24T05:36:19;9.20;1.00
4826;DHT22;2427;50.934;6.776;2023-04-24T05:38:45;9.20;1.00
4826;DHT22;2427;50.934;6.776;2023-04-24T05:41:10;9.20;1.00
4826;DHT22;2427;50.934;6.776;2023-04-24T05:43:36;9.20;1.00
4826;DHT22;2427;50.934;6.776;2023-04-24T05:46:01;9.20;1.00
4826;DHT22;2427;50.934;6.776;2023-04-24T05:48:27;9.20;1.00
4826;DHT22;2427;50.934;6.776;2023-04-24T05:50:52;9.20;1.00
4826;DHT22;2427;50.934;6.776;2023-04-24T05:53:18;9.20;1.00
4826;DHT22;2427;50.934;6.776;2023-04-24T05:55:44;9.20;1.00
4826;DHT22;2427;50.934;6.776;2023-04-24T05:58:11;9.30;1.00
4826;DHT22;2427;50.934;6.776;2023-04-24T06:00:37;9.30;1.00
4826;DHT22;2427;50.934;6.776;2023-04-24T06:03:03;9.30;1.00
4826;DHT22;2427;50.934;6.776;2023-04-24T06:05:29;9.30;1.00
4826;DHT22;2427;50.934;6.776;2023-04-24T06:07:55;9.30;1.00
4826;DHT22;2427;50.934;6.776;2023-04-24T06:10:21;9.20;1.00
4826;DHT22;2427;50.934;6.776;2023-04-24T06:12:46;9.10;1.00
4826;DHT22;2427;50.934;6.776;2023-04-24T06:15:12;9.10;1.00
4826;DHT22;2427;50.934;6.776;2023-04-24T06:17:38;9.00;10.00
4826;DHT22;2427;50.934;6.776;2023-04-24T06:20:04;9.00;55.10
4826;DHT22;2427;50.934;6.776;2023-04-24T06:22:31;8.90;99.90
4826;DHT22;2427;50.934;6.776;2023-04-24T06:24:57;8.90;91.10
4826;DHT22;2427;50.934;6.776;2023-04-24T06:27:22;8.90;1.00
4826;DHT22;2427;50.934;6.776;2023-04-24T06:29:48;8.90;99.90
4826;DHT22;2427;50.934;6.776;2023-04-24T06:32:22;8.80;99.90
4826;DHT22;2427;50.934;6.776;2023-04-24T06:34:48;8.80;1.00
4826;DHT22;2427;50.934;6.776;2023-04-24T06:37:14;8.70;1.00
4826;DHT22;2427;50.934;6.776;2023-04-24T06:39:40;8.60;1.00
4826;DHT22;2427;50.934;6.776;2023-04-24T06:42:06;8.40;98.70
4826;DHT22;2427;50.934;6.776;2023-04-24T06:44:31;8.40;99.90
4826;DHT22;2427;50.934;6.776;2023-04-24T06:46:57;8.30;1.00
4826;DHT22;2427;50.934;6.776;2023-04-24T06:49:23;8.20;1.00
4826;DHT22;2427;50.934;6.776;2023-04-24T06:51:48;8.20;99.90
4826;DHT22;2427;50.934;6.776;2023-04-24T06:54:14;8.10;99.90
4826;DHT22;2427;50.934;6.776;2023-04-24T06:56:39;8.10;1.00
4826;DHT22;2427;50.934;6.776;2023-04-24T06:59:05;8.00;55.90
4826;DHT22;2427;50.934;6.776;2023-04-24T07:01:30;8.00;1.00
4826;DHT22;2427;50.934;6.776;2023-04-24T07:03:56;8.00;1.00
4826;DHT22;2427;50.934;6.776;2023-04-24T07:06:21;8.00;99.90
4826;DHT22;2427;50.934;6.776;2023-04-24T07:08:49;8.00;99.90
4826;DHT22;2427;50.934;6.776;2023-04-24T07:11:14;8.00;1.00
4826;DHT22;2427;50.934;6.776;2023-04-24T07:13:40;8.00;1.00
4826;DHT22;2427;50.934;6.776;2023-04-24T07:16:07;8.00;99.90
4826;DHT22;2427;50.934;6.776;2023-04-24T07:18:33;7.90;99.90
4826;DHT22;2427;50.934;6.776;2023-04-24T07:20:59;7.90;99.90
4826;DHT22;2427;50.934;6.776;2023-04-24T07:23:25;8.00;1.00
4826;DHT22;2427;50.934;6.776;2023-04-24T07:25:50;7.90;1.00
4826;DHT22;2427;50.934;6.776;2023-04-24T07:28:16;7.90;1.00
4826;DHT22;2427;50.934;6.776;2023-04-24T07:30:43;7.90;1.00
4826;DHT22;2427;50.934;6.776;2023-04-24T07:33:08;7.70;99.90
4826;DHT22;2427;50.934;6.776;2023-04-24T07:35:36;7.70;1.00
4826;DHT22;2427;50.934;6.776;2023-04-24T07:38:02;7.70;1.00
4826;DHT22;2427;50.934;6.776;2023-04-24T07:40:27;7.60;99.90
4826;DHT22;2427;50.934;6.776;2023-04-24T07:42:53;7.50;1.00
4826;DHT22;2427;50.934;6.776;2023-04-24T07:45:18;7.40;1.00
4826;DHT22;2427;50.934;6.776;2023-04-24T07:47:44;7.40;1.00
4826;DHT22;2427;50.934;6.776;2023-04-24T07:50:11;7.40;99.90
4826;DHT22;2427;50.934;6.776;2023-04-24T07:52:38;7.30;87.20
4826;DHT22;2427;50.934;6.776;2023-04-24T07:55:04;7.20;99.90
4826;DHT22;2427;50.934;6.776;2023-04-24T07:57:30;7.10;99.90
4826;DHT22;2427;50.934;6.776;2023-04-24T07:59:55;7.20;99.90
4826;DHT22;2427;50.934;6.776;2023-04-24T08:02:21;7.10;99.90
4826;DHT22;2427;50.934;6.776;2023-04-24T08:04:52;7.00;99.90
4826;DHT22;2427;50.934;6.776;2023-04-24T08:07:18;7.00;99.90
4826;DHT22;2427;50.934;6.776;2023-04-24T08:09:43;7.00;99.90
4826;DHT22;2427;50.934;6.776;2023-04-24T08:12:09;7.00;99.90
4826;DHT22;2427;50.934;6.776;2023-04-24T08:14:35;6.80;99.90
4826;DHT22;2427;50.934;6.776;2023-04-24T08:17:00;6.80;99.90
4826;DHT22;2427;50.934;6.776;2023-04-24T08:19:26;6.70;99.90
4826;DHT22;2427;50.934;6.776;2023-04-24T08:21:52;6.70;99.90
4826;DHT22;2427;50.934;6.776;2023-04-24T08:24:17;6.70;99.90
4826;DHT22;2427;50.934;6.776;2023-04-24T08:26:43;6.60;99.90
4826;DHT22;2427;50.934;6.776;2023-04-24T08:29:09;6.60;99.90
4826;DHT22;2427;50.934;6.776;2023-04-24T08:31:34;6.60;99.90
4826;DHT22;2427;50.934;6.776;2023-04-24T08:34:00;6.50;99.90
4826;DHT22;2427;50.934;6.776;2023-04-24T08:36:26;6.50;99.90
4826;DHT22;2427;50.934;6.776;2023-04-24T08:38:52;6.50;99.90
4826;DHT22;2427;50.934;6.776;2023-04-24T08:41:18;6.50;99.90
4826;DHT22;2427;50.934;6.776;2023-04-24T08:43:46;6.50;99.90
4826;DHT22;2427;50.934;6.776;2023-04-24T08:46:13;6.50;99.90
4826;DHT22;2427;50.934;6.776;2023-04-24T08:48:39;6.60;99.90
4826;DHT22;2427;50.934;6.776;2023-04-24T08:51:07;6.60;99.90
4826;DHT22;2427;50.934;6.776;2023-04-24T08:53:33;6.70;99.90
4826;DHT22;2427;50.934;6.776;2023-04-24T08:56:01;6.70;99.90
4826;DHT22;2427;50.934;6.776;2023-04-24T08:58:27;6.60;99.90
4826;DHT22;2427;50.934;6.776;2023-04-24T09:00:57;6.70;99.90
4826;DHT22;2427;50.934;6.776;2023-04-24T09:03:23;6.70;99.90
4826;DHT22;2427;50.934;6.776;2023-04-24T09:05:50;6.70;99.90
4826;DHT22;2427;50.934;6.776;2023-04-24T09:08:19;6.80;99.90
4826;DHT22;2427;50.934;6.776;2023-04-24T09:10:45;6.80;99.90
4826;DHT22;2427;50.934;6.776;2023-04-24T09:13:11;6.80;99.90
4826;DHT22;2427;50.934;6.776;2023-04-24T09:15:38;7.00;99.90
4826;DHT22;2427;50.934;6.776;2023-04-24T09:18:04;7.00;99.90
4826;DHT22;2427;50.934;6.776;2023-04-24T09:20:31;7.00;99.90
4826;DHT22;2427;50.934;6.776;2023-04-24T09:22:57;7.10;99.90
4826;DHT22;2427;50.934;6.776;2023-04-24T09:25:30;7.10;99.90
4826;DHT22;2427;50.934;6.776;2023-04-24T09:28:00;7.20;99.90
4826;DHT22;2427;50.934;6.776;2023-04-24T09:30:27;7.30;99.90
4826;DHT22;2427;50.934;6.776;2023-04-24T09:33:19;7.40;99.90
4826;DHT22;2427;50.934;6.776;2023-04-24T09:35:51;7.40;99.90
4826;DHT22;2427;50.934;6.776;2023-04-24T09:38:17;7.50;99.90
4826;DHT22;2427;50.934;6.776;2023-04-24T09:40:43;7.50;99.90
4826;DHT22;2427;50.934;6.776;2023-04-24T09:43:12;7.60;99.90
4826;DHT22;2427;50.934;6.776;2023-04-24T09:45:39;7.70;99.90
4826;DHT22;2427;50.934;6.776;2023-04-24T09:48:05;7.70;99.90
4826;DHT22;2427;50.934;6.776;2023-04-24T09:50:34;7.90;99.90
4826;DHT22;2427;50.934;6.776;2023-04-24T09:53:02;8.00;99.90
4826;DHT22;2427;50.934;6.776;2023-04-24T09:55:28;8.10;99.90
4826;DHT22;2427;50.934;6.776;2023-04-24T09:57:58;8.20;99.90
4826;DHT22;2427;50.934;6.776;2023-04-24T10:00:30;8.30;99.90
4826;DHT22;2427;50.934;6.776;2023-04-24T10:03:01;8.30;99.90
4826;DHT22;2427;50.934;6.776;2023-04-24T10:05:32;8.20;99.90
4826;DHT22;2427;50.934;6.776;2023-04-24T10:08:08;8.30;99.90
4826;DHT22;2427;50.934;6.776;2023-04-24T10:10:37;8.40;99.90
4826;DHT22;2427;50.934;6.776;2023-04-24T10:13:04;8.40;99.90
4826;DHT22;2427;50.934;6.776;2023-04-24T10:15:30;8.50;99.90
4826;DHT22;2427;50.934;6.776;2023-04-24T10:17:58;8.60;99.90
4826;DHT22;2427;50.934;6.776;2023-04-24T10:20:26;8.60;99.90
4826;DHT22;2427;50.934;6.776;2023-04-24T10:22:54;8.70;99.90
4826;DHT22;2427;50.934;6.776;2023-04-24T10:25:21;8.70;99.90
4826;DHT22;2427;50.934;6.776;2023-04-24T10:27:49;8.60;99.90
4826;DHT22;2427;50.934;6.776;2023-04-24T10:30:15;8.70;99.90
4826;DHT22;2427;50.934;6.776;2023-04-24T10:32:41;8.90;99.90
4826;DHT22;2427;50.934;6.776;2023-04-24T10:35:07;8.90;99.90
4826;DHT22;2427;50.934;6.776;2023-04-24T10:37:44;8.80;99.90
4826;DHT22;2427;50.934;6.776;2023-04-24T10:40:10;8.90;99.90
4826;DHT22;2427;50.934;6.776;2023-04-24T10:42:40;9.10;99.90
4826;DHT22;2427;50.934;6.776;2023-04-24T10:45:16;9.20;99.90
4826;DHT22;2427;50.934;6.776;2023-04-24T10:47:56;9.20;99.90
4826;DHT22;2427;50.934;6.776;2023-04-24T10:50:22;9.30;99.90
4826;DHT22;2427;50.934;6.776;2023-04-24T10:52:49;9.50;99.90
4826;DHT22;2427;50.934;6.776;2023-04-24T10:55:23;9.50;85.40
4826;DHT22;2427;50.934;6.776;2023-04-24T10:58:03;9.40;38.20
4826;DHT22;2427;50.934;6.776;2023-04-24T11:00:29;9.40;2.40
4826;DHT22;2427;50.934;6.776;2023-04-24T11:02:55;9.40;77.90
4826;DHT22;2427;50.934;6.776;2023-04-24T11:05:21;9.40;6.30
4826;DHT22;2427;50.934;6.776;2023-04-24T11:08:16;9.30;1.00
4826;DHT22;2427;50.934;6.776;2023-04-24T11:10:47;9.30;14.10
4826;DHT22;2427;50.934;6.776;2023-04-24T11:13:21;9.50;95.70
4826;DHT22;2427;50.934;6.776;2023-04-24T11:16:14;9.80;29.20
4826;DHT22;2427;50.934;6.776;2023-04-24T11:18:42;10.10;1.00
4826;DHT22;2427;50.934;6.776;2023-04-24T11:21:16;10.20;1.00
4826;DHT22;2427;50.934;6.776;2023-04-24T11:23:42;10.10;99.90
4826;DHT22;2427;50.934;6.776;2023-04-24T11:26:19;10.10;1.00
4826;DHT22;2427;50.934;6.776;2023-04-24T11:28:49;10.10;1.00
4826;DHT22;2427;50.934;6.776;2023-04-24T11:31:37;10.30;1.00
4826;DHT22;2427;50.934;6.776;2023-04-24T11:34:11;10.60;99.90
4826;DHT22;2427;50.934;6.776;2023-04-24T11:36:38;10.70;99.90
4826;DHT22;2427;50.934;6.776;2023-04-24T11:39:04;10.90;99.90
4826;DHT22;2427;50.934;6.776;2023-04-24T11:41:30;10.90;80.20
4826;DHT22;2427;50.934;6.776;2023-04-24T11:43:57;11.00;1.00
4826;DHT22;2427;50.934;6.776;2023-04-24T11:46:23;11.30;1.00
4826;DHT22;2427;50.934;6.776;2023-04-24T11:48:48;11.70;99.90
4826;DHT22;2427;50.934;6.776;2023-04-24T11:51:14;11.80;1.00
4826;DHT22;2427;50.934;6.776;2023-04-24T11:53:40;12.00;99.90
4826;DHT22;2427;50.934;6.776;2023-04-24T11:56:06;12.30;1.00
4826;DHT22;2427;50.934;6.776;2023-04-24T11:58:35;12.30;1.00
4826;DHT22;2427;50.934;6.776;2023-04-24T12:01:02;12.50;99.90
4826;DHT22;2427;50.934;6.776;2023-04-24T12:03:27;12.60;99.90
4826;DHT22;2427;50.934;6.776;2023-04-24T12:06:08;12.70;99.90
4826;DHT22;2427;50.934;6.776;2023-04-24T12:08:34;12.70;1.00
4826;DHT22;2427;50.934;6.776;2023-04-24T12:11:01;12.60;30.30
4826;DHT22;2427;50.934;6.776;2023-04-24T12:13:26;12.60;61.50
4826;DHT22;2427;50.934;6.776;2023-04-24T12:15:52;12.70;53.40
4826;DHT22;2427;50.934;6.776;2023-04-24T12:18:18;12.60;63.60
4826;DHT22;2427;50.934;6.776;2023-04-24T12:20:43;12.30;1.00
4826;DHT22;2427;50.934;6.776;2023-04-24T12:23:09;12.00;1.00
4826;DHT22;2427;50.934;6.776;2023-04-24T12:25:34;12.00;1.00
4826;DHT22;2427;50.934;6.776;2023-04-24T12:30:30;12.40;1.00
4826;DHT22;2427;50.934;6.776;2023-04-24T12:32:57;12.60;1.00
4826;DHT22;2427;50.934;6.776;2023-04-24T12:35:27;12.70;1.00
4826;DHT22;2427;50.934;6.776;2023-04-24T12:37:52;12.70;1.00
4826;DHT22;2427;50.934;6.776;2023-04-24T12:40:21;12.60;1.00
4826;DHT22;2427;50.934;6.776;2023-04-24T12:42:49;12.40;1.00
4826;DHT22;2427;50.934;6.776;2023-04-24T12:45:15;12.60;1.00
4826;DHT22;2427;50.934;6.776;2023-04-24T12:47:42;12.70;1.00
4826;DHT22;2427;50.934;6.776;2023-04-24T12:50:09;13.30;1.00
4826;DHT22;2427;50.934;6.776;2023-04-24T12:52:35;13.80;99.90
4826;DHT22;2427;50.934;6.776;2023-04-24T12:55:01;14.10;99.90
4826;DHT22;2427;50.934;6.776;2023-04-24T12:57:28;14.20;99.90
4826;DHT22;2427;50.934;6.776;2023-04-24T12:59:55;14.30;99.90
4826;DHT22;2427;50.934;6.776;2023-04-24T13:02:25;14.20;99.90
4826;DHT22;2427;50.934;6.776;2023-04-24T13:04:53;14.50;99.90
4826;DHT22;2427;50.934;6.776;2023-04-24T13:07:19;15.00;99.90
4826;DHT22;2427;50.934;6.776;2023-04-24T13:09:45;15.50;99.90
4826;DHT22;2427;50.934;6.776;2023-04-24T13:12:11;15.00;99.90
4826;DHT22;2427;50.934;6.776;2023-04-24T13:14:37;14.50;99.90
4826;DHT22;2427;50.934;6.776;2023-04-24T13:17:03;13.90;99.90
4826;DHT22;2427;50.934;6.776;2023-04-24T13:19:29;13.90;99.90
4826;DHT22;2427;50.934;6.776;2023-04-24T13:21:56;13.90;99.90
4826;DHT22;2427;50.934;6.776;2023-04-24T13:24:23;13.90;99.90
4826;DHT22;2427;50.934;6.776;2023-04-24T13:26:52;14.20;99.90
4826;DHT22;2427;50.934;6.776;2023-04-24T13:29:18;14.20;99.90
4826;DHT22;2427;50.934;6.776;2023-04-24T13:31:44;14.10;99.90
4826;DHT22;2427;50.934;6.776;2023-04-24T13:34:09;14.50;99.90
4826;DHT22;2427;50.934;6.776;2023-04-24T13:36:35;15.80;99.90
4826;DHT22;2427;50.934;6.776;2023-04-24T13:39:02;16.30;99.90
4826;DHT22;2427;50.934;6.776;2023-04-24T13:41:30;15.20;99.90
4826;DHT22;2427;50.934;6.776;2023-04-24T13:43:55;14.50;99.90
4826;DHT22;2427;50.934;6.776;2023-04-24T13:46:21;14.50;99.90
4826;DHT22;2427;50.934;6.776;2023-04-24T13:48:47;14.80;99.90
4826;DHT22;2427;50.934;6.776;2023-04-24T13:51:12;15.30;99.90
4826;DHT22;2427;50.934;6.776;2023-04-24T13:53:38;15.30;99.90
4826;DHT22;2427;50.934;6.776;2023-04-24T13:56:04;15.00;99.90
4826;DHT22;2427;50.934;6.776;2023-04-24T13:58:31;14.90;99.90
4826;DHT22;2427;50.934;6.776;2023-04-24T14:00:57;15.20;99.90
4826;DHT22;2427;50.934;6.776;2023-04-24T14:03:23;15.50;99.90
4826;DHT22;2427;50.934;6.776;2023-04-24T14:05:48;15.20;99.90
4826;DHT22;2427;50.934;6.776;2023-04-24T14:08:14;15.00;99.90
4826;DHT22;2427;50.934;6.776;2023-04-24T14:10:39;16.10;99.90
4826;DHT22;2427;50.934;6.776;2023-04-24T14:13:05;15.70;99.90
4826;DHT22;2427;50.934;6.776;2023-04-24T14:15:31;15.20;99.90
4826;DHT22;2427;50.934;6.776;2023-04-24T14:17:57;14.60;99.90
4826;DHT22;2427;50.934;6.776;2023-04-24T14:20:23;14.10;99.90
4826;DHT22;2427;50.934;6.776;2023-04-24T14:22:48;14.50;99.90
4826;DHT22;2427;50.934;6.776;2023-04-24T14:25:14;15.90;99.90
4826;DHT22;2427;50.934;6.776;2023-04-24T14:27:40;15.80;99.90
4826;DHT22;2427;50.934;6.776;2023-04-24T14:30:07;16.20;99.90
4826;DHT22;2427;50.934;6.776;2023-04-24T14:32:32;17.70;99.90
4826;DHT22;2427;50.934;6.776;2023-04-24T14:34:58;18.90;99.90
4826;DHT22;2427;50.934;6.776;2023-04-24T14:37:24;18.10;99.90
4826;DHT22;2427;50.934;6.776;2023-04-24T14:39:49;16.80;99.90
4826;DHT22;2427;50.934;6.776;2023-04-24T14:42:15;16.50;99.90
4826;DHT22;2427;50.934;6.776;2023-04-24T14:44:42;16.60;99.90
4826;DHT22;2427;50.934;6.776;2023-04-24T14:47:07;16.40;99.90
4826;DHT22;2427;50.934;6.776;2023-04-24T14:49:33;17.00;99.90
4826;DHT22;2427;50.934;6.776;2023-04-24T14:51:59;18.10;99.90
4826;DHT22;2427;50.934;6.776;2023-04-24T14:54:24;19.40;99.90
4826;DHT22;2427;50.934;6.776;2023-04-24T14:56:50;19.90;99.90
4826;DHT22;2427;50.934;6.776;2023-04-24T14:59:16;19.50;99.90
4826;DHT22;2427;50.934;6.776;2023-04-24T15:01:42;18.00;99.90
4826;DHT22;2427;50.934;6.776;2023-04-24T15:04:07;17.80;99.90
4826;DHT22;2427;50.934;6.776;2023-04-24T15:06:33;17.20;99.90
4826;DHT22;2427;50.934;6.776;2023-04-24T15:08:58;17.30;99.90
4826;DHT22;2427;50.934;6.776;2023-04-24T15:11:24;18.80;99.90
4826;DHT22;2427;50.934;6.776;2023-04-24T15:13:50;20.10;99.90
4826;DHT22;2427;50.934;6.776;2023-04-24T15:16:16;20.30;99.90
4826;DHT22;2427;50.934;6.776;2023-04-24T15:18:41;19.90;99.90
4826;DHT22;2427;50.934;6.776;2023-04-24T15:21:07;19.60;99.90
4826;DHT22;2427;50.934;6.776;2023-04-24T15:23:32;20.40;99.90
4826;DHT22;2427;50.934;6.776;2023-04-24T15:25:58;20.70;99.90
4826;DHT22;2427;50.934;6.776;2023-04-24T15:28:25;20.50;99.90
4826;DHT22;2427;50.934;6.776;2023-04-24T15:30:50;19.40;99.90
4826;DHT22;2427;50.934;6.776;2023-04-24T15:33:16;18.60;99.90
4826;DHT22;2427;50.934;6.776;2023-04-24T15:35:41;18.20;99.90
4826;DHT22;2427;50.934;6.776;2023-04-24T15:38:07;18.60;99.90
4826;DHT22;2427;50.934;6.776;2023-04-24T15:40:33;18.40;99.90
4826;DHT22;2427;50.934;6.776;2023-04-24T15:42:59;17.50;99.90
4826;DHT22;2427;50.934;6.776;2023-04-24T15:45:24;18.20;99.90
4826;DHT22;2427;50.934;6.776;2023-04-24T15:47:50;18.80;99.90
4826;DHT22;2427;50.934;6.776;2023-04-24T15:50:16;18.50;99.90
4826;DHT22;2427;50.934;6.776;2023-04-24T15:52:44;17.30;99.90
4826;DHT22;2427;50.934;6.776;2023-04-24T15:55:09;16.60;99.90
4826;DHT22;2427;50.934;6.776;2023-04-24T15:57:35;15.80;99.90
4826;DHT22;2427;50.934;6.776;2023-04-24T16:00:02;15.00;99.90
4826;DHT22;2427;50.934;6.776;2023-04-24T16:02:31;14.40;99.90
4826;DHT22;2427;50.934;6.776;2023-04-24T16:04:57;14.00;99.90
4826;DHT22;2427;50.934;6.776;2023-04-24T16:07:22;13.60;99.90
4826;DHT22;2427;50.934;6.776;2023-04-24T16:09:48;13.50;99.90
4826;DHT22;2427;50.934;6.776;2023-04-24T16:12:13;13.30;99.90
4826;DHT22;2427;50.934;6.776;2023-04-24T16:14:39;13.20;99.90
4826;DHT22;2427;50.934;6.776;2023-04-24T16:17:05;13.10;99.90
4826;DHT22;2427;50.934;6.776;2023-04-24T16:19:31;13.00;99.90
4826;DHT22;2427;50.934;6.776;2023-04-24T16:21:58;13.00;99.90
4826;DHT22;2427;50.934;6.776;2023-04-24T16:24:24;13.10;99.90
4826;DHT22;2427;50.934;6.776;2023-04-24T16:26:51;13.10;99.90
4826;DHT22;2427;50.934;6.776;2023-04-24T16:29:17;13.00;99.90